Time;durP1;ratioP1;P1;durP2;ratioP2;P2;SDS_P1;SDS_P2;PMS_P1;PMS_P2;Temp;Humidity;BMP_temperature;BMP_pressure;BME280_temperature;BME280_humidity;BME280_pressure;Samples;Min_cycle;Max_cycle;Signal;HPM_P1;HPM_P2
2023/07/17 00:00:03;;;;;;;2.70;1.52;;;27.50;40.50;;;;;;5150286;27;45274;-70
2023/07/17 00:02:30;;;;;;;2.05;1.10;;;27.50;40.40;;;;;;5150337;27;45229;-70
2023/07/17 00:04:57;;;;;;;1.25;1.15;;;27.50;40.60;;;;;;5150698;27;45378;-71
2023/07/17 00:07:25;;;;;;;1.65;1.30;;;27.50;40.70;;;;;;5150686;27;45259;-70
2023/07/17 00:09:52;;;;;;;2.60;1.20;;;27.50;40.70;;;;;;5150415;27;45516;-70
2023/07/17 00:12:19;;;;;;;1.98;1.42;;;27.50;40.70;;;;;;5150383;27;45310;-70
2023/07/17 00:14:46;;;;;;;1.25;1.15;;;27.50;40.70;;;;;;5150558;27;45240;-69
2023/07/17 00:17:12;;;;;;;1.30;1.20;;;27.50;40.80;;;;;;5150663;27;45332;-70
2023/07/17 00:19:39;;;;;;;1.33;1.10;;;27.50;40.80;;;;;;5150324;27;47406;-70
2023/07/17 00:22:07;;;;;;;1.70;1.38;;;27.50;40.80;;;;;;5150016;27;45236;-70
2023/07/17 00:24:35;;;;;;;1.13;1.10;;;27.40;40.80;;;;;;5150771;27;45468;-69
2023/07/17 00:27:02;;;;;;;1.85;1.02;;;27.40;40.70;;;;;;5150520;27;45239;-70
2023/07/17 00:29:29;;;;;;;1.45;1.00;;;27.40;40.80;;;;;;5150170;27;46318;-70
2023/07/17 00:31:56;;;;;;;1.67;1.10;;;27.40;40.80;;;;;;5150443;27;45376;-70
2023/07/17 00:34:23;;;;;;;1.88;1.30;;;27.40;40.70;;;;;;5150212;27;45186;-70
2023/07/17 00:36:50;;;;;;;2.60;1.30;;;27.40;40.80;;;;;;5150320;27;45558;-70
2023/07/17 00:39:18;;;;;;;1.30;1.25;;;27.40;40.80;;;;;;5149844;27;46491;-70
2023/07/17 00:41:47;;;;;;;2.85;1.00;;;27.40;40.90;;;;;;5149834;27;45312;-70
2023/07/17 00:44:14;;;;;;;1.75;1.23;;;27.30;40.80;;;;;;5149606;27;45374;-70
2023/07/17 00:46:40;;;;;;;1.58;1.08;;;27.30;40.90;;;;;;5150078;27;45295;-70
2023/07/17 00:49:07;;;;;;;1.50;1.23;;;27.30;40.80;;;;;;5149760;27;46520;-71
2023/07/17 00:51:34;;;;;;;1.05;1.02;;;27.30;40.90;;;;;;5149299;27;45254;-70
2023/07/17 00:54:01;;;;;;;0.95;0.95;;;27.30;40.90;;;;;;5149815;27;45272;-70
2023/07/17 00:56:28;;;;;;;1.50;1.20;;;27.30;41.50;;;;;;5149928;27;45196;-70
2023/07/17 00:58:57;;;;;;;1.40;1.30;;;27.30;40.90;;;;;;5149600;27;45274;-70
2023/07/17 01:01:23;;;;;;;1.85;1.10;;;27.30;40.90;;;;;;5149409;27;45401;-70
2023/07/17 01:03:51;;;;;;;1.40;1.10;;;27.30;40.90;;;;;;5149482;27;45191;-70
2023/07/17 01:06:18;;;;;;;1.17;0.98;;;27.30;41.00;;;;;;5149963;27;45128;-70
2023/07/17 01:08:44;;;;;;;1.17;1.08;;;27.30;41.00;;;;;;5149021;27;46698;-69
2023/07/17 01:11:11;;;;;;;1.27;1.17;;;27.20;41.00;;;;;;5149557;27;45397;-71
2023/07/17 01:13:44;;;;;;;2.33;1.20;;;27.30;41.10;;;;;;5149448;27;45313;-70
2023/07/17 01:16:13;;;;;;;2.03;1.08;;;27.20;41.00;;;;;;5149557;27;45290;-70
2023/07/17 01:18:39;;;;;;;1.15;1.10;;;27.20;41.00;;;;;;5148942;27;46414;-70
2023/07/17 01:21:08;;;;;;;1.50;1.20;;;27.20;41.10;;;;;;5148952;27;45298;-69
2023/07/17 01:23:36;;;;;;;1.08;0.98;;;27.20;41.70;;;;;;5149004;27;45266;-69
2023/07/17 01:26:11;;;;;;;1.70;1.20;;;27.20;41.10;;;;;;5149247;27;45286;-69
2023/07/17 01:28:38;;;;;;;1.90;1.10;;;27.20;41.10;;;;;;5148726;27;46291;-69
2023/07/17 01:31:05;;;;;;;1.65;1.20;;;27.20;41.00;;;;;;5148604;27;45198;-69
2023/07/17 01:33:32;;;;;;;1.30;1.20;;;27.20;41.10;;;;;;5148933;27;45246;-70
2023/07/17 01:35:59;;;;;;;1.27;1.17;;;27.10;41.10;;;;;;5149422;27;45122;-69
2023/07/17 01:38:26;;;;;;;1.10;1.05;;;27.10;41.10;;;;;;5148668;27;46405;-69
2023/07/17 01:40:54;;;;;;;1.17;1.05;;;27.10;41.20;;;;;;5148794;27;45327;-69
2023/07/17 01:43:21;;;;;;;1.95;1.30;;;27.10;41.20;;;;;;5148794;27;45234;-69
2023/07/17 01:45:48;;;;;;;1.10;0.95;;;27.10;41.20;;;;;;5148978;27;45273;-69
2023/07/17 01:48:17;;;;;;;1.25;1.15;;;27.10;41.10;;;;;;5148577;27;46579;-69
2023/07/17 01:50:43;;;;;;;2.03;1.05;;;27.10;41.10;;;;;;5148694;27;45381;-69
2023/07/17 01:53:10;;;;;;;1.60;1.45;;;27.00;41.20;;;;;;5148396;27;45494;-69
2023/07/17 01:55:37;;;;;;;1.15;1.02;;;27.00;41.20;;;;;;5148762;27;45383;-69
2023/07/17 01:58:05;;;;;;;1.77;1.33;;;27.00;41.20;;;;;;5148120;27;46520;-69
2023/07/17 02:00:32;;;;;;;2.33;1.10;;;27.10;41.20;;;;;;5148470;27;45252;-69
2023/07/17 02:02:59;;;;;;;1.88;1.30;;;27.00;41.20;;;;;;5148462;27;45329;-69
2023/07/17 02:05:26;;;;;;;1.73;1.42;;;27.00;41.30;;;;;;5148608;27;45570;-69
2023/07/17 02:07:52;;;;;;;1.52;1.42;;;27.00;41.30;;;;;;5148498;27;46751;-70
2023/07/17 02:10:19;;;;;;;1.50;1.30;;;27.00;41.30;;;;;;5148609;27;45359;-69
2023/07/17 02:12:46;;;;;;;1.27;1.15;;;27.00;41.30;;;;;;5148686;27;45235;-70
2023/07/17 02:15:14;;;;;;;1.27;1.17;;;27.00;41.40;;;;;;5151601;27;45432;-70
2023/07/17 02:17:41;;;;;;;1.73;1.10;;;27.00;41.40;;;;;;5155060;27;46411;-70
2023/07/17 02:20:10;;;;;;;1.13;0.95;;;27.00;41.40;;;;;;5154895;27;45156;-70
2023/07/17 02:22:37;;;;;;;1.48;1.38;;;26.90;41.40;;;;;;5155320;27;45341;-70
2023/07/17 02:25:05;;;;;;;1.73;1.20;;;26.90;41.30;;;;;;5155521;27;45269;-69
2023/07/17 02:27:32;;;;;;;1.30;1.20;;;26.90;41.30;;;;;;5155029;27;45440;-69
2023/07/17 02:29:59;;;;;;;1.30;1.20;;;26.90;41.40;;;;;;5154985;27;45187;-69
2023/07/17 02:32:28;;;;;;;1.30;1.20;;;26.90;41.40;;;;;;5155397;27;45316;-70
2023/07/17 02:34:55;;;;;;;1.63;1.30;;;26.90;41.50;;;;;;5155394;27;45331;-69
2023/07/17 02:37:22;;;;;;;1.30;1.02;;;26.90;41.40;;;;;;5155127;27;47061;-70
2023/07/17 02:39:49;;;;;;;1.58;1.10;;;26.90;41.50;;;;;;5155175;27;45217;-69
2023/07/17 02:42:16;;;;;;;1.17;1.08;;;26.90;41.50;;;;;;5155212;27;45228;-70
2023/07/17 02:44:43;;;;;;;1.13;1.02;;;26.90;41.40;;;;;;5155060;27;45577;-70
2023/07/17 02:47:10;;;;;;;1.33;0.90;;;26.80;41.40;;;;;;5154833;27;45375;-69
2023/07/17 02:49:38;;;;;;;0.93;0.93;;;26.90;41.50;;;;;;5154942;27;45217;-69
2023/07/17 02:52:06;;;;;;;2.13;1.40;;;26.90;41.50;;;;;;5154702;27;45199;-70
2023/07/17 02:54:33;;;;;;;3.22;1.08;;;26.80;41.40;;;;;;5155122;27;45281;-70
2023/07/17 02:56:59;;;;;;;2.30;1.10;;;26.80;41.50;;;;;;5154678;27;46681;-70
2023/07/17 02:59:26;;;;;;;1.15;1.00;;;26.80;41.50;;;;;;5154803;27;45278;-70
2023/07/17 03:01:54;;;;;;;1.85;1.00;;;26.80;41.40;;;;;;5154758;27;45283;-70
2023/07/17 03:04:21;;;;;;;1.30;1.00;;;26.80;41.50;;;;;;5154852;27;45536;-69
2023/07/17 03:06:50;;;;;;;0.98;0.98;;;26.80;41.60;;;;;;5154069;27;46834;-69
2023/07/17 03:09:17;;;;;;;1.30;1.10;;;26.80;41.60;;;;;;5154555;27;45201;-69
2023/07/17 03:11:44;;;;;;;1.40;1.00;;;26.80;41.60;;;;;;5154718;27;45150;-70
2023/07/17 03:14:10;;;;;;;1.05;0.95;;;26.80;41.60;;;;;;5154922;27;45396;-70
2023/07/17 03:16:37;;;;;;;1.00;1.00;;;26.80;41.60;;;;;;5154394;27;45386;-70
2023/07/17 03:19:04;;;;;;;1.38;1.15;;;26.70;41.60;;;;;;5154408;27;45334;-70
2023/07/17 03:21:31;;;;;;;0.90;0.85;;;26.70;41.60;;;;;;5154587;27;45318;-69
2023/07/17 03:23:59;;;;;;;1.90;1.10;;;26.70;41.70;;;;;;5154639;27;45295;-69
2023/07/17 03:26:26;;;;;;;0.98;0.98;;;26.70;41.60;;;;;;5152282;27;46422;-70
2023/07/17 03:28:53;;;;;;;1.75;1.05;;;26.70;41.60;;;;;;5150939;27;45352;-70
2023/07/17 03:31:20;;;;;;;1.42;1.27;;;26.70;42.30;;;;;;5151113;27;45311;-69
2023/07/17 03:33:46;;;;;;;1.38;1.13;;;26.60;41.60;;;;;;5151197;27;45261;-69
2023/07/17 03:36:13;;;;;;;1.30;1.20;;;26.60;41.60;;;;;;5150610;27;48305;-70
2023/07/17 03:38:40;;;;;;;1.50;1.00;;;26.60;41.70;;;;;;5150769;27;45187;-70
2023/07/17 03:41:09;;;;;;;1.10;1.05;;;26.60;41.70;;;;;;5151045;27;45376;-70
2023/07/17 03:43:35;;;;;;;1.08;0.93;;;26.60;41.60;;;;;;5150911;27;45474;-69
2023/07/17 03:46:02;;;;;;;1.23;0.95;;;26.60;41.80;;;;;;5150726;27;45298;-69
2023/07/17 03:48:29;;;;;;;2.05;1.10;;;26.60;41.70;;;;;;5150880;27;45187;-70
2023/07/17 03:50:56;;;;;;;2.00;1.30;;;26.60;41.70;;;;;;5150474;27;45250;-70
2023/07/17 03:53:23;;;;;;;2.13;1.00;;;26.60;41.70;;;;;;5150514;27;45232;-70
2023/07/17 03:55:49;;;;;;;2.65;1.10;;;26.60;41.80;;;;;;5150688;27;45367;-69
2023/07/17 03:58:18;;;;;;;1.20;1.10;;;26.60;41.70;;;;;;5150761;27;45309;-70
2023/07/17 04:00:45;;;;;;;1.33;0.90;;;26.60;41.80;;;;;;5150672;27;44618;-70
2023/07/17 04:03:12;;;;;;;1.10;1.00;;;26.60;41.80;;;;;;5150510;27;45398;-70
2023/07/17 04:05:38;;;;;;;1.35;1.08;;;26.50;41.70;;;;;;5150183;27;46393;-69
2023/07/17 04:08:05;;;;;;;1.08;1.00;;;26.50;41.80;;;;;;5150440;27;45238;-70
2023/07/17 04:10:32;;;;;;;1.20;1.10;;;26.50;41.80;;;;;;5150604;27;45270;-70
2023/07/17 04:12:59;;;;;;;1.08;0.98;;;26.50;41.80;;;;;;5150448;27;45445;-69
2023/07/17 04:15:29;;;;;;;0.95;0.95;;;26.50;41.90;;;;;;5150200;27;45236;-69
2023/07/17 04:17:55;;;;;;;0.90;0.90;;;26.50;41.90;;;;;;5150163;27;45371;-69
2023/07/17 04:20:22;;;;;;;1.20;1.10;;;26.50;41.80;;;;;;5150316;27;45194;-70
2023/07/17 04:22:49;;;;;;;1.20;1.00;;;26.50;41.80;;;;;;5150236;27;45402;-69
2023/07/17 04:25:16;;;;;;;1.13;1.13;;;26.50;41.80;;;;;;5149880;27;46397;-70
2023/07/17 04:27:43;;;;;;;1.25;1.00;;;26.50;41.80;;;;;;5150112;27;45235;-70
2023/07/17 04:30:10;;;;;;;1.45;0.90;;;26.50;41.90;;;;;;5150295;27;45479;-70
2023/07/17 04:32:38;;;;;;;0.80;0.80;;;26.50;41.90;;;;;;5150461;27;45505;-70
2023/07/17 04:35:06;;;;;;;1.45;1.20;;;26.40;41.80;;;;;;5149409;27;45489;-70
2023/07/17 04:37:33;;;;;;;1.63;1.27;;;26.50;41.90;;;;;;5149529;27;45321;-71
2023/07/17 04:40:00;;;;;;;1.25;1.15;;;26.50;41.80;;;;;;5150065;27;45363;-70
2023/07/17 04:42:27;;;;;;;0.82;0.82;;;26.50;41.90;;;;;;5150160;27;45250;-70
2023/07/17 04:44:53;;;;;;;1.33;1.20;;;26.50;41.90;;;;;;5149602;27;46390;-70
2023/07/17 04:47:20;;;;;;;1.10;1.05;;;26.40;41.80;;;;;;5149885;27;45249;-69
2023/07/17 04:49:49;;;;;;;0.98;0.98;;;26.40;41.80;;;;;;5149895;27;45301;-70
2023/07/17 04:52:15;;;;;;;1.48;1.10;;;26.40;41.90;;;;;;5149544;27;45560;-69
2023/07/17 04:54:42;;;;;;;1.10;1.10;;;26.40;41.90;;;;;;5149450;27;45591;-70
2023/07/17 04:57:09;;;;;;;2.25;1.00;;;26.40;42.50;;;;;;5149624;27;45185;-69
2023/07/17 04:59:36;;;;;;;1.30;1.20;;;26.40;41.80;;;;;;5149636;27;45196;-70
2023/07/17 05:02:03;;;;;;;1.00;1.00;;;26.40;41.80;;;;;;5149869;27;45286;-69
2023/07/17 05:04:30;;;;;;;1.70;1.35;;;26.40;41.90;;;;;;5149467;27;46738;-69
2023/07/17 05:06:58;;;;;;;1.80;1.10;;;26.40;41.90;;;;;;5149329;27;45336;-70
2023/07/17 05:09:25;;;;;;;1.23;1.13;;;26.40;42.00;;;;;;5149666;27;45206;-70
2023/07/17 05:11:51;;;;;;;1.08;0.98;;;26.40;42.10;;;;;;5149516;27;45114;-70
2023/07/17 05:14:18;;;;;;;1.13;1.00;;;26.40;42.00;;;;;;5149702;27;46616;-69
2023/07/17 05:16:45;;;;;;;1.83;1.20;;;26.40;42.00;;;;;;5149085;27;45260;-69
2023/07/17 05:19:12;;;;;;;1.13;1.02;;;26.40;42.00;;;;;;5148860;27;45201;-70
2023/07/17 05:21:38;;;;;;;1.00;1.00;;;26.40;42.00;;;;;;5149200;27;45145;-70
2023/07/17 05:24:07;;;;;;;1.50;1.13;;;26.40;42.00;;;;;;5148721;27;46396;-69
2023/07/17 05:26:34;;;;;;;1.40;1.27;;;26.40;42.00;;;;;;5149056;27;45222;-70
2023/07/17 05:29:00;;;;;;;1.20;1.10;;;26.40;42.10;;;;;;5149142;27;45316;-69
2023/07/17 05:31:27;;;;;;;1.00;0.98;;;26.40;42.10;;;;;;5149437;27;45174;-70
2023/07/17 05:33:55;;;;;;;1.00;1.00;;;26.40;42.10;;;;;;5149045;27;47264;-70
2023/07/17 05:36:22;;;;;;;1.45;0.98;;;26.40;42.10;;;;;;5148905;27;45421;-69
2023/07/17 05:38:49;;;;;;;1.10;0.90;;;26.40;42.10;;;;;;5148941;27;45318;-69
2023/07/17 05:41:17;;;;;;;1.17;1.08;;;26.40;42.70;;;;;;5149235;27;45362;-70
2023/07/17 05:43:44;;;;;;;1.20;1.10;;;26.40;42.10;;;;;;5148654;27;45247;-69
2023/07/17 05:46:12;;;;;;;2.08;1.17;;;26.40;42.10;;;;;;5148641;27;45187;-69
2023/07/17 05:48:38;;;;;;;1.23;1.15;;;26.40;42.20;;;;;;5148836;27;45246;-70
2023/07/17 05:51:05;;;;;;;4.38;1.20;;;26.40;42.10;;;;;;5148093;27;45274;-69
2023/07/17 05:53:32;;;;;;;1.40;1.30;;;26.40;42.70;;;;;;5148156;27;45366;-69
2023/07/17 05:55:59;;;;;;;1.52;1.40;;;26.40;42.10;;;;;;5148508;27;45959;-70
2023/07/17 05:58:27;;;;;;;1.80;1.20;;;26.40;42.20;;;;;;5148984;27;45195;-69
2023/07/17 06:00:54;;;;;;;1.10;1.00;;;26.50;42.10;;;;;;5148876;27;45284;-69
2023/07/17 06:03:21;;;;;;;1.75;1.20;;;26.50;42.10;;;;;;5148360;27;45409;-69
2023/07/17 06:05:47;;;;;;;1.40;1.25;;;26.40;42.10;;;;;;5148094;27;45259;-69
2023/07/17 06:08:14;;;;;;;1.08;1.00;;;26.40;42.10;;;;;;5148272;27;45227;-69
2023/07/17 06:10:42;;;;;;;1.20;1.08;;;26.50;42.10;;;;;;5148752;27;45402;-69
2023/07/17 06:13:09;;;;;;;1.40;1.30;;;26.50;42.10;;;;;;5148077;27;47495;-69
2023/07/17 06:15:37;;;;;;;1.10;1.00;;;26.50;42.20;;;;;;5148251;27;45295;-69
2023/07/17 06:18:04;;;;;;;1.55;1.10;;;26.50;42.20;;;;;;5148107;27;45235;-68
2023/07/17 06:20:31;;;;;;;1.20;1.10;;;26.40;42.10;;;;;;5148543;27;45167;-69
2023/07/17 06:22:58;;;;;;;1.33;1.23;;;26.50;42.20;;;;;;5147924;27;46465;-69
2023/07/17 06:25:26;;;;;;;2.70;1.23;;;26.40;42.20;;;;;;5148342;27;45403;-69
2023/07/17 06:27:52;;;;;;;2.05;1.25;;;26.50;42.20;;;;;;5148330;27;45314;-69
2023/07/17 06:30:20;;;;;;;2.58;1.08;;;26.50;42.20;;;;;;5148448;27;45213;-69
2023/07/17 06:32:48;;;;;;;1.88;1.23;;;26.50;42.20;;;;;;5148034;27;47555;-69
2023/07/17 06:35:15;;;;;;;1.20;1.10;;;26.50;42.10;;;;;;5145313;27;45306;-68
2023/07/17 06:37:42;;;;;;;2.30;1.40;;;26.50;42.10;;;;;;5148112;27;45278;-68
2023/07/17 06:40:10;;;;;;;1.13;1.02;;;26.60;42.10;;;;;;5148364;27;45552;-68
2023/07/17 06:42:37;;;;;;;2.03;1.10;;;26.60;42.10;;;;;;5148150;27;47324;-69
2023/07/17 06:45:05;;;;;;;2.20;1.15;;;26.60;42.10;;;;;;5147698;27;45455;-69
2023/07/17 06:47:32;;;;;;;1.30;1.20;;;26.60;42.10;;;;;;5148284;27;45358;-68
2023/07/17 06:50:00;;;;;;;1.60;1.40;;;26.60;42.60;;;;;;5147983;27;45290;-70
2023/07/17 06:52:27;;;;;;;3.53;1.15;;;26.60;42.00;;;;;;5147155;27;47314;-69
2023/07/17 06:54:54;;;;;;;1.25;1.15;;;26.70;42.10;;;;;;5147743;27;45366;-69
2023/07/17 06:57:21;;;;;;;1.23;0.88;;;26.70;42.00;;;;;;5147839;27;45301;-68
2023/07/17 06:59:48;;;;;;;1.77;1.10;;;26.70;42.00;;;;;;5147876;27;45191;-69
2023/07/17 07:02:15;;;;;;;2.15;0.98;;;26.70;42.00;;;;;;5150077;27;46420;-68
2023/07/17 07:04:42;;;;;;;1.10;1.00;;;26.70;42.00;;;;;;5151159;27;45169;-69
2023/07/17 07:07:10;;;;;;;0.90;0.90;;;26.70;42.00;;;;;;5151724;27;45344;-69
2023/07/17 07:09:37;;;;;;;1.15;1.05;;;26.70;42.00;;;;;;5151608;27;45275;-71
2023/07/17 07:12:04;;;;;;;1.10;1.00;;;26.80;42.00;;;;;;5151218;27;46756;-71
2023/07/17 07:14:31;;;;;;;1.35;1.23;;;26.80;42.10;;;;;;5151149;27;45298;-68
2023/07/17 07:16:58;;;;;;;1.33;1.00;;;26.80;42.10;;;;;;5151197;27;45354;-71
2023/07/17 07:19:25;;;;;;;1.75;1.20;;;26.80;42.10;;;;;;5151742;27;45454;-70
2023/07/17 07:21:52;;;;;;;1.00;0.98;;;26.80;42.10;;;;;;5150978;27;46406;-71
2023/07/17 07:24:20;;;;;;;1.20;1.05;;;26.90;42.20;;;;;;5150868;27;45167;-70
2023/07/17 07:26:46;;;;;;;1.13;1.02;;;26.90;42.10;;;;;;5151193;27;45141;-72
2023/07/17 07:29:13;;;;;;;1.10;1.00;;;26.90;42.10;;;;;;5151332;27;45363;-70
2023/07/17 07:31:40;;;;;;;1.48;1.13;;;26.90;42.10;;;;;;5150847;27;45312;-71
2023/07/17 07:34:07;;;;;;;1.75;1.20;;;27.00;42.10;;;;;;5150779;27;45248;-71
2023/07/17 07:36:34;;;;;;;1.20;1.10;;;27.00;42.10;;;;;;5150654;27;45167;-68
2023/07/17 07:39:00;;;;;;;1.20;1.10;;;27.00;42.10;;;;;;5150935;27;45399;-70
2023/07/17 07:41:29;;;;;;;1.10;1.00;;;27.00;42.10;;;;;;5150627;27;45306;-69
2023/07/17 07:43:55;;;;;;;2.05;1.25;;;27.00;42.10;;;;;;5150644;27;45314;-70
2023/07/17 07:46:22;;;;;;;1.17;1.08;;;27.10;42.10;;;;;;5150620;27;45303;-70
2023/07/17 07:48:49;;;;;;;1.58;1.25;;;27.10;42.70;;;;;;5150904;27;45111;-70
2023/07/17 07:51:16;;;;;;;1.20;1.10;;;27.10;42.10;;;;;;5150231;27;45251;-70
2023/07/17 07:53:43;;;;;;;1.80;1.25;;;27.10;42.10;;;;;;5150664;27;45130;-69
2023/07/17 07:56:09;;;;;;;1.50;1.38;;;27.10;42.10;;;;;;5150621;27;45311;-69
2023/07/17 07:58:37;;;;;;;1.63;1.30;;;27.20;42.20;;;;;;5150559;27;45334;-70
2023/07/17 08:01:04;;;;;;;1.52;1.13;;;27.20;42.10;;;;;;5147430;27;45237;-70
2023/07/17 08:03:31;;;;;;;1.48;1.27;;;27.20;42.10;;;;;;5150136;27;45145;-69
2023/07/17 08:05:58;;;;;;;1.83;1.33;;;27.20;42.10;;;;;;5150365;27;45191;-70
2023/07/17 08:08:25;;;;;;;1.27;1.17;;;27.20;42.10;;;;;;5150707;27;45505;-70
2023/07/17 08:10:53;;;;;;;1.50;1.30;;;27.20;42.10;;;;;;5150972;27;45535;-70
2023/07/17 08:13:20;;;;;;;1.35;1.00;;;27.20;42.10;;;;;;5149592;27;45278;-69
2023/07/17 08:15:49;;;;;;;1.65;1.55;;;27.30;42.80;;;;;;5150282;27;45268;-70
2023/07/17 08:18:16;;;;;;;1.00;1.00;;;27.30;42.20;;;;;;5150023;27;45385;-70
2023/07/17 08:20:43;;;;;;;1.58;1.25;;;27.30;42.10;;;;;;5149500;27;46381;-69
2023/07/17 08:23:10;;;;;;;1.55;1.35;;;27.30;42.20;;;;;;5149882;27;45198;-70
2023/07/17 08:25:37;;;;;;;1.80;1.45;;;27.40;42.20;;;;;;5149973;27;45133;-70
2023/07/17 08:28:04;;;;;;;2.33;1.25;;;27.40;42.10;;;;;;5150437;27;45183;-70
2023/07/17 08:30:31;;;;;;;4.68;1.48;;;27.40;42.10;;;;;;5149722;27;46678;-70
2023/07/17 08:32:59;;;;;;;2.08;1.40;;;27.40;42.10;;;;;;5149791;27;45236;-70
2023/07/17 08:35:26;;;;;;;5.55;1.55;;;27.50;42.10;;;;;;5149974;27;45294;-71
2023/07/17 08:37:53;;;;;;;3.47;1.65;;;27.50;42.10;;;;;;5150083;27;45338;-70
2023/07/17 08:40:20;;;;;;;2.47;1.38;;;27.50;42.10;;;;;;5149704;27;46651;-70
2023/07/17 08:42:46;;;;;;;6.00;1.50;;;27.50;42.00;;;;;;5149893;27;45378;-71
2023/07/17 08:45:13;;;;;;;3.33;1.60;;;27.50;42.00;;;;;;5149718;27;45349;-70
2023/07/17 08:47:40;;;;;;;5.57;1.60;;;27.50;41.90;;;;;;5150119;27;45514;-70
2023/07/17 08:50:11;;;;;;;1.50;1.35;;;27.50;42.00;;;;;;5149510;27;45259;-70
2023/07/17 08:52:37;;;;;;;4.13;1.52;;;27.60;42.00;;;;;;5149214;27;45327;-70
2023/07/17 08:55:05;;;;;;;2.10;1.40;;;27.60;42.00;;;;;;5149590;27;45406;-70
2023/07/17 08:57:32;;;;;;;2.10;1.23;;;27.60;41.90;;;;;;5149945;27;45485;-70
2023/07/17 08:59:59;;;;;;;1.80;1.65;;;27.70;41.90;;;;;;5149640;27;46689;-70
2023/07/17 09:02:25;;;;;;;2.88;1.77;;;27.70;41.90;;;;;;5149450;27;45304;-70
2023/07/17 09:04:52;;;;;;;1.75;1.60;;;27.70;41.80;;;;;;5149094;27;45252;-70
2023/07/17 09:07:20;;;;;;;3.10;1.83;;;27.70;42.40;;;;;;5149237;27;45427;-70
2023/07/17 09:09:47;;;;;;;3.00;1.75;;;27.80;41.90;;;;;;5149293;27;45211;-69
2023/07/17 09:12:16;;;;;;;4.65;1.85;;;27.80;41.80;;;;;;5149380;27;45220;-70
2023/07/17 09:14:42;;;;;;;3.72;1.60;;;27.80;41.80;;;;;;5149396;27;45347;-70
2023/07/17 09:17:11;;;;;;;2.72;1.40;;;27.90;41.80;;;;;;5149561;27;45402;-70
2023/07/17 09:19:38;;;;;;;1.58;1.40;;;27.90;41.80;;;;;;5148994;27;45482;-70
2023/07/17 09:22:06;;;;;;;4.07;1.73;;;27.90;41.70;;;;;;5149031;27;45287;-71
2023/07/17 09:24:35;;;;;;;3.50;1.83;;;28.00;41.70;;;;;;5147965;27;45294;-70
2023/07/17 09:27:05;;;;;;;2.15;1.80;;;28.00;41.70;;;;;;5149449;27;45164;-69
2023/07/17 09:29:32;;;;;;;5.90;2.08;;;28.00;42.30;;;;;;5148965;27;46667;-70
2023/07/17 09:32:14;;;;;;;3.38;1.88;;;28.00;41.70;;;;;;5148829;27;45355;-70
2023/07/17 09:34:40;;;;;;;3.25;1.92;;;28.00;41.70;;;;;;5149000;27;45386;-70
2023/07/17 09:37:09;;;;;;;4.53;1.65;;;28.10;41.70;;;;;;5149041;27;45402;-70
2023/07/17 09:39:38;;;;;;;4.05;1.48;;;28.10;41.70;;;;;;5148746;27;46654;-70
2023/07/17 09:42:06;;;;;;;2.28;1.60;;;28.10;41.60;;;;;;5148788;27;45305;-70
2023/07/17 09:44:33;;;;;;;1.70;1.60;;;28.20;41.60;;;;;;5148796;27;45366;-70
2023/07/17 09:46:59;;;;;;;2.25;1.75;;;28.20;41.50;;;;;;5148990;27;45539;-70
2023/07/17 09:49:26;;;;;;;1.75;1.60;;;28.20;41.50;;;;;;5148749;27;46429;-71
2023/07/17 09:51:53;;;;;;;4.97;1.60;;;28.20;41.50;;;;;;5146281;27;45260;-70
2023/07/17 09:54:20;;;;;;;2.85;1.73;;;28.30;41.50;;;;;;5148713;27;45153;-70
2023/07/17 09:56:48;;;;;;;5.05;2.08;;;28.20;42.00;;;;;;5148880;27;45351;-71
2023/07/17 09:59:18;;;;;;;2.95;1.60;;;28.30;41.50;;;;;;5148281;27;46485;-70
2023/07/17 10:01:47;;;;;;;3.03;1.88;;;28.30;41.40;;;;;;5148479;27;45318;-70
2023/07/17 10:04:14;;;;;;;3.92;1.85;;;28.40;41.60;;;;;;5148812;27;45325;-70
2023/07/17 10:06:41;;;;;;;3.97;1.73;;;28.40;41.40;;;;;;5148537;27;45423;-70
2023/07/17 10:09:09;;;;;;;3.30;1.83;;;28.40;41.30;;;;;;5148389;27;46452;-70
2023/07/17 10:11:36;;;;;;;3.85;1.80;;;28.50;41.30;;;;;;5148394;27;45496;-71
2023/07/17 10:14:04;;;;;;;2.72;1.70;;;28.50;41.30;;;;;;5148339;27;45390;-70
2023/07/17 10:16:31;;;;;;;2.60;1.98;;;28.50;41.20;;;;;;5148513;27;45391;-70
2023/07/17 10:18:58;;;;;;;3.03;1.75;;;28.60;41.20;;;;;;5148470;27;45445;-70
2023/07/17 10:21:25;;;;;;;5.75;1.92;;;28.60;41.20;;;;;;5148292;27;45154;-71
2023/07/17 10:23:51;;;;;;;4.28;1.80;;;28.60;41.10;;;;;;5148453;27;45370;-70
2023/07/17 10:26:20;;;;;;;2.50;1.83;;;28.60;41.10;;;;;;5148693;27;45452;-70
2023/07/17 10:28:49;;;;;;;1.90;1.70;;;28.70;41.10;;;;;;5148494;27;47274;-70
2023/07/17 10:31:19;;;;;;;3.10;2.05;;;28.70;41.00;;;;;;5148374;27;45197;-70
2023/07/17 10:33:47;;;;;;;1.83;1.73;;;28.70;41.00;;;;;;5148261;27;45363;-70
2023/07/17 10:36:14;;;;;;;3.85;1.85;;;28.70;41.10;;;;;;5149337;27;45335;-70
2023/07/17 10:38:42;;;;;;;2.85;1.75;;;28.70;41.10;;;;;;5152280;27;45296;-71
2023/07/17 10:41:24;;;;;;;2.08;1.88;;;28.70;41.10;;;;;;5151662;27;45296;-70
2023/07/17 10:43:51;;;;;;;2.55;1.60;;;28.80;41.70;;;;;;5151972;27;45190;-70
2023/07/17 10:46:19;;;;;;;1.70;1.60;;;28.80;41.00;;;;;;5152370;27;45334;-71
2023/07/17 10:48:46;;;;;;;2.75;2.08;;;28.80;40.90;;;;;;5152111;27;45294;-70
2023/07/17 10:51:13;;;;;;;3.78;2.22;;;28.80;41.00;;;;;;5151300;27;45261;-71
2023/07/17 10:53:39;;;;;;;2.75;1.95;;;28.90;41.10;;;;;;5151666;27;45275;-70
2023/07/17 10:56:06;;;;;;;3.35;1.83;;;28.90;41.00;;;;;;5152081;27;45482;-70
2023/07/17 10:58:33;;;;;;;1.98;1.77;;;28.90;41.00;;;;;;5151313;27;45533;-70
2023/07/17 11:01:04;;;;;;;3.97;2.00;;;29.00;41.00;;;;;;5151486;27;45325;-71
2023/07/17 11:03:33;;;;;;;3.00;1.88;;;29.00;41.00;;;;;;5151678;27;45435;-70
2023/07/17 11:05:59;;;;;;;1.98;1.83;;;29.00;40.90;;;;;;5151783;27;45419;-70
2023/07/17 11:08:27;;;;;;;2.80;2.00;;;29.00;40.90;;;;;;5151262;27;45255;-70
2023/07/17 11:10:53;;;;;;;2.20;1.98;;;29.10;40.80;;;;;;5151374;27;45199;-70
2023/07/17 11:13:20;;;;;;;3.47;2.00;;;29.10;40.80;;;;;;5151352;27;45336;-70
2023/07/17 11:15:47;;;;;;;2.70;2.22;;;29.10;41.40;;;;;;5151461;27;45357;-70
2023/07/17 11:18:14;;;;;;;2.75;1.85;;;29.10;40.70;;;;;;5150946;27;45294;-69
2023/07/17 11:20:42;;;;;;;2.10;1.85;;;29.20;40.70;;;;;;5151042;27;45371;-69
2023/07/17 11:23:12;;;;;;;1.95;1.80;;;29.20;40.70;;;;;;5151116;27;45140;-70
2023/07/17 11:25:38;;;;;;;2.78;2.00;;;29.30;40.60;;;;;;5151418;27;45275;-70
2023/07/17 11:28:05;;;;;;;2.33;1.85;;;29.30;40.50;;;;;;5150885;27;46405;-70
2023/07/17 11:30:33;;;;;;;3.55;2.15;;;29.30;40.50;;;;;;5150916;27;45256;-70
2023/07/17 11:33:05;;;;;;;3.50;2.20;;;29.40;40.40;;;;;;5151078;27;45146;-69
2023/07/17 11:35:46;;;;;;;2.47;1.95;;;29.40;40.50;;;;;;5151159;27;45306;-70
2023/07/17 11:38:14;;;;;;;2.05;1.83;;;29.40;40.40;;;;;;5151009;27;47578;-70
2023/07/17 11:40:54;;;;;;;2.33;1.55;;;29.50;40.40;;;;;;5150910;27;45267;-69
2023/07/17 11:43:24;;;;;;;2.15;1.92;;;29.60;40.30;;;;;;5150879;27;45257;-70
2023/07/17 11:45:51;;;;;;;2.30;2.10;;;29.60;40.20;;;;;;5151287;27;45311;-70
2023/07/17 11:48:19;;;;;;;3.78;1.98;;;29.60;40.20;;;;;;5149282;27;45497;-70
2023/07/17 11:50:47;;;;;;;2.00;1.90;;;29.70;40.20;;;;;;5150141;27;45179;-70
2023/07/17 11:53:14;;;;;;;3.72;2.33;;;29.70;40.20;;;;;;5150572;27;45274;-70
2023/07/17 11:55:41;;;;;;;2.28;1.90;;;29.70;40.10;;;;;;5151190;27;45445;-70
2023/07/17 11:58:15;;;;;;;2.95;2.10;;;29.80;40.10;;;;;;5150530;27;46221;-70
2023/07/17 12:00:42;;;;;;;2.75;2.10;;;29.80;40.10;;;;;;5150530;27;45224;-70
2023/07/17 12:03:09;;;;;;;2.47;1.92;;;29.90;40.10;;;;;;5150652;27;45177;-70
2023/07/17 12:05:36;;;;;;;3.33;1.92;;;29.80;40.00;;;;;;5150728;27;45501;-71
2023/07/17 12:08:05;;;;;;;2.63;1.98;;;29.80;40.10;;;;;;5150256;27;45256;-71
2023/07/17 12:10:32;;;;;;;2.33;2.03;;;29.90;40.20;;;;;;5150699;27;45366;-71
2023/07/17 12:12:59;;;;;;;5.35;2.10;;;29.90;40.20;;;;;;5150572;27;45187;-71
2023/07/17 12:15:26;;;;;;;2.08;1.80;;;29.90;40.20;;;;;;5150606;27;45457;-72
2023/07/17 12:17:53;;;;;;;2.50;1.95;;;29.90;40.20;;;;;;5150489;27;46685;-72
2023/07/17 12:20:21;;;;;;;4.35;2.10;;;29.90;40.20;;;;;;5150499;27;45361;-74
2023/07/17 12:22:49;;;;;;;2.95;2.35;;;29.90;40.10;;;;;;5150684;27;45352;-76
2023/07/17 12:25:17;;;;;;;2.35;2.10;;;29.90;40.20;;;;;;5151066;27;45296;-72
2023/07/17 12:27:44;;;;;;;2.33;1.98;;;30.00;40.00;;;;;;5150508;27;48965;-73
2023/07/17 12:30:11;;;;;;;3.55;2.60;;;30.00;40.10;;;;;;5150411;27;45366;-71
2023/07/17 12:32:38;;;;;;;2.97;2.67;;;30.00;40.00;;;;;;5150535;27;45256;-72
2023/07/17 12:35:06;;;;;;;3.38;2.30;;;30.10;40.00;;;;;;5150658;27;45545;-71
2023/07/17 12:37:33;;;;;;;3.67;2.75;;;30.10;39.70;;;;;;5150124;27;45367;-72
2023/07/17 12:40:00;;;;;;;4.70;2.78;;;30.10;39.70;;;;;;5150962;27;45403;-72
2023/07/17 12:42:28;;;;;;;3.45;2.88;;;30.10;39.70;;;;;;5151424;27;45338;-74
2023/07/17 12:44:55;;;;;;;4.05;2.83;;;30.10;39.60;;;;;;5151461;27;45257;-73
2023/07/17 12:47:21;;;;;;;5.15;3.00;;;30.10;39.40;;;;;;5151790;27;46390;-71